createdAt,value
2019-03-18T00:00:23.029Z,1017.43
2019-03-18T00:01:23.016Z,1017.42
2019-03-18T00:02:23.044Z,1017.4
2019-03-18T00:03:23.091Z,1017.36
2019-03-18T00:04:23.080Z,1017.37
2019-03-18T00:05:23.070Z,1017.3
2019-03-18T00:06:22.887Z,1017.36
2019-03-18T00:07:23.121Z,1017.35
2019-03-18T00:08:23.173Z,1017.33
2019-03-18T00:09:23.217Z,1017.37
2019-03-18T00:10:22.918Z,1017.32
2019-03-18T00:11:23.135Z,1017.36
2019-03-18T00:12:23.176Z,1017.33
2019-03-18T00:13:22.954Z,1017.31
2019-03-18T00:14:25.367Z,1017.35
2019-03-18T00:15:23.021Z,1017.37
2019-03-18T00:16:22.960Z,1017.36
2019-03-18T00:17:23.049Z,1017.39
2019-03-18T00:18:23.153Z,1017.35
2019-03-18T00:19:23.013Z,1017.36
2019-03-18T00:20:23.139Z,1017.32
2019-03-18T00:21:23.457Z,1017.33
2019-03-18T00:22:23.146Z,1017.3
2019-03-18T00:23:23.079Z,1017.31
2019-03-18T00:24:22.998Z,1017.28
2019-03-18T00:25:23.062Z,1017.31
2019-03-18T00:26:23.128Z,1017.33
2019-03-18T00:27:23.258Z,1017.32
2019-03-18T00:28:23.063Z,1017.36
2019-03-18T00:29:23.133Z,1017.31
2019-03-18T00:30:23.209Z,1017.33
2019-03-18T00:31:23.262Z,1017.37
2019-03-18T00:32:22.882Z,1017.29
2019-03-18T00:33:23.257Z,1017.3
2019-03-18T00:34:22.908Z,1017.27
2019-03-18T00:35:22.938Z,1017.29
2019-03-18T00:36:22.953Z,1017.29
2019-03-18T00:37:22.982Z,1017.29
2019-03-18T00:38:22.981Z,1017.29
2019-03-18T00:39:22.922Z,1017.27
2019-03-18T00:40:23.016Z,1017.25
2019-03-18T00:41:23.010Z,1017.25
2019-03-18T00:42:23.101Z,1017.26
2019-03-18T00:43:23.166Z,1017.23
2019-03-18T00:44:23.049Z,1017.26
2019-03-18T00:45:23.011Z,1017.28
2019-03-18T00:46:22.924Z,1017.31
2019-03-18T00:47:23.076Z,1017.31
2019-03-18T00:48:23.120Z,1017.31
2019-03-18T00:49:23.089Z,1017.33
2019-03-18T00:50:22.894Z,1017.38
2019-03-18T00:51:23.156Z,1017.38
2019-03-18T00:52:23.153Z,1017.42
2019-03-18T00:53:22.858Z,1017.43
2019-03-18T00:54:22.942Z,1017.44
2019-03-18T00:55:22.958Z,1017.43
2019-03-18T00:56:22.956Z,1017.43
2019-03-18T00:57:23.052Z,1017.4
2019-03-18T00:58:23.070Z,1017.43
2019-03-18T00:59:22.992Z,1017.47
2019-03-18T01:00:23.130Z,1017.46
2019-03-18T01:01:22.988Z,1017.46
2019-03-18T01:02:22.991Z,1017.51
2019-03-18T01:03:23.091Z,1017.53
2019-03-18T01:04:23.177Z,1017.61
2019-03-18T01:05:22.946Z,1017.6
2019-03-18T01:06:23.120Z,1017.66
2019-03-18T01:07:23.137Z,1017.69
2019-03-18T01:08:22.993Z,1017.7
2019-03-18T01:09:23.118Z,1017.67
2019-03-18T01:10:23.098Z,1017.66
2019-03-18T01:11:23.175Z,1017.68
2019-03-18T01:12:22.993Z,1017.67
2019-03-18T01:13:23.140Z,1017.68
2019-03-18T01:14:22.901Z,1017.68
2019-03-18T01:15:28.911Z,1017.67
2019-03-18T01:16:22.824Z,1017.72
2019-03-18T01:17:23.026Z,1017.72
2019-03-18T01:18:23.058Z,1017.72
2019-03-18T01:19:22.964Z,1017.72
2019-03-18T01:20:22.877Z,1017.72
2019-03-18T01:21:23.025Z,1017.68
2019-03-18T01:22:23.005Z,1017.75
2019-03-18T01:23:23.058Z,1017.77
2019-03-18T01:24:23.064Z,1017.76
2019-03-18T01:25:23.082Z,1017.76
2019-03-18T01:26:23.070Z,1017.72
2019-03-18T01:27:25.772Z,1017.74
2019-03-18T01:28:23.152Z,1017.7
2019-03-18T01:29:23.189Z,1017.7
2019-03-18T01:30:23.109Z,1017.72
2019-03-18T01:31:22.989Z,1017.73
2019-03-18T01:32:22.915Z,1017.73
2019-03-18T01:33:23.056Z,1017.79
2019-03-18T01:34:22.953Z,1017.79
2019-03-18T01:35:22.945Z,1017.75
2019-03-18T01:36:23.087Z,1017.77
2019-03-18T01:37:23.051Z,1017.72
2019-03-18T01:38:23.120Z,1017.72
2019-03-18T01:39:22.983Z,1017.7
2019-03-18T01:40:23.919Z,1017.7
2019-03-18T01:41:22.978Z,1017.71
2019-03-18T01:42:23.046Z,1017.72
2019-03-18T01:43:23.118Z,1017.69
2019-03-18T01:44:22.985Z,1017.66
2019-03-18T01:45:23.108Z,1017.68
2019-03-18T01:46:23.165Z,1017.71
2019-03-18T01:47:23.149Z,1017.73
2019-03-18T01:48:23.029Z,1017.71
2019-03-18T01:49:23.109Z,1017.72
2019-03-18T01:50:23.300Z,1017.71
2019-03-18T01:51:23.187Z,1017.71
2019-03-18T01:52:22.887Z,1017.71
2019-03-18T01:53:22.870Z,1017.72
2019-03-18T01:54:23.002Z,1017.74
2019-03-18T01:55:23.047Z,1017.73
2019-03-18T01:56:22.915Z,1017.74
2019-03-18T01:57:22.963Z,1017.75
2019-03-18T01:58:22.823Z,1017.75
2019-03-18T01:59:22.948Z,1017.74
2019-03-18T02:00:22.998Z,1017.71
2019-03-18T02:01:22.993Z,1017.75
2019-03-18T02:02:23.363Z,1017.74
2019-03-18T02:03:23.042Z,1017.76
2019-03-18T02:04:23.033Z,1017.75
2019-03-18T02:05:23.035Z,1017.75
2019-03-18T02:06:23.183Z,1017.74
2019-03-18T02:07:23.189Z,1017.75
2019-03-18T02:08:23.129Z,1017.79
2019-03-18T02:09:23.054Z,1017.73
2019-03-18T02:10:27.331Z,1017.74
2019-03-18T02:11:22.892Z,1017.75
2019-03-18T02:12:23.090Z,1017.71
2019-03-18T02:13:23.002Z,1017.75
2019-03-18T02:14:23.021Z,1017.74
2019-03-18T02:15:22.997Z,1017.73
2019-03-18T02:16:22.974Z,1017.73
2019-03-18T02:17:22.868Z,1017.74
2019-03-18T02:18:23.072Z,1017.72
2019-03-18T02:19:23.001Z,1017.75
2019-03-18T02:20:23.130Z,1017.76
2019-03-18T02:21:23.057Z,1017.69
2019-03-18T02:22:23.215Z,1017.68
2019-03-18T02:23:23.171Z,1017.68
2019-03-18T02:24:23.210Z,1017.64
2019-03-18T02:25:23.211Z,1017.63
2019-03-18T02:26:23.124Z,1017.64
2019-03-18T02:27:23.121Z,1017.62
2019-03-18T02:28:22.851Z,1017.65
2019-03-18T02:29:23.039Z,1017.67
2019-03-18T02:30:22.960Z,1017.66
2019-03-18T02:31:22.876Z,1017.67
2019-03-18T02:32:22.936Z,1017.74
2019-03-18T02:33:23.019Z,1017.79
2019-03-18T02:34:23.302Z,1017.82
2019-03-18T02:35:23.182Z,1017.81
2019-03-18T02:36:23.111Z,1017.87
2019-03-18T02:37:22.865Z,1017.85
2019-03-18T02:38:23.013Z,1017.86
2019-03-18T02:39:23.036Z,1017.85
2019-03-18T02:40:23.065Z,1017.88
2019-03-18T02:41:23.047Z,1017.89
2019-03-18T02:42:23.111Z,1017.88
2019-03-18T02:43:23.080Z,1017.87
2019-03-18T02:44:23.172Z,1017.89
2019-03-18T02:45:25.407Z,1017.91
2019-03-18T02:46:23.130Z,1017.93
2019-03-18T02:47:22.975Z,1017.93
2019-03-18T02:48:23.054Z,1017.9
2019-03-18T02:49:22.904Z,1017.88
2019-03-18T02:50:22.929Z,1017.91
2019-03-18T02:51:22.959Z,1017.93
2019-03-18T02:52:23.027Z,1017.91
2019-03-18T02:53:22.869Z,1017.93
2019-03-18T02:54:23.081Z,1017.93
2019-03-18T02:55:22.968Z,1017.97
2019-03-18T02:56:23.143Z,1017.96
2019-03-18T02:57:23.001Z,1017.97
2019-03-18T02:58:23.033Z,1017.95
2019-03-18T02:59:23.076Z,1017.96
2019-03-18T03:00:23.097Z,1017.97
2019-03-18T03:01:22.840Z,1017.97
2019-03-18T03:02:23.213Z,1017.97
2019-03-18T03:03:23.193Z,1017.97
2019-03-18T03:04:23.104Z,1017.98
2019-03-18T03:05:22.864Z,1017.95
2019-03-18T03:06:23.033Z,1017.99
2019-03-18T03:07:22.869Z,1017.98
2019-03-18T03:08:22.915Z,1017.98
2019-03-18T03:09:22.873Z,1017.91
2019-03-18T03:10:22.924Z,1017.92
2019-03-18T03:11:22.944Z,1017.93
2019-03-18T03:12:22.963Z,1017.92
2019-03-18T03:13:22.877Z,1017.93
2019-03-18T03:14:23.091Z,1017.96
2019-03-18T03:15:23.175Z,1017.97
2019-03-18T03:16:27.883Z,1018
2019-03-18T03:17:22.689Z,1018.02
2019-03-18T03:18:23.205Z,1017.99
2019-03-18T03:19:22.947Z,1017.95
2019-03-18T03:20:23.053Z,1018
2019-03-18T03:21:23.073Z,1018
2019-03-18T03:22:23.092Z,1018
2019-03-18T03:23:23.059Z,1018.03
2019-03-18T03:24:23.115Z,1018.03
2019-03-18T03:25:25.596Z,1018.06
2019-03-18T03:26:23.014Z,1018.04
2019-03-18T03:27:23.083Z,1018.05
2019-03-18T03:28:23.026Z,1018.06
2019-03-18T03:29:22.958Z,1018.04
2019-03-18T03:30:22.985Z,1018.02
2019-03-18T03:31:23.120Z,1018.01
2019-03-18T03:32:23.025Z,1018.05
2019-03-18T03:33:24.060Z,1018.07
2019-03-18T03:34:23.016Z,1018.05
2019-03-18T03:35:23.029Z,1018.07
2019-03-18T03:36:22.844Z,1018.02
2019-03-18T03:37:23.119Z,1018.04
2019-03-18T03:38:23.031Z,1018.05
2019-03-18T03:39:23.064Z,1018.01
2019-03-18T03:40:22.717Z,1017.99
2019-03-18T03:41:23.203Z,1018.05
2019-03-18T03:42:23.092Z,1018.06
2019-03-18T03:43:22.831Z,1018.05
2019-03-18T03:44:22.868Z,1018.05
2019-03-18T03:45:22.814Z,1018.03
2019-03-18T03:46:22.881Z,1018.09
2019-03-18T03:47:22.878Z,1018.1
2019-03-18T03:48:22.897Z,1018.16
2019-03-18T03:49:23.020Z,1018.15
2019-03-18T03:50:22.915Z,1018.16
2019-03-18T03:51:22.847Z,1018.18
2019-03-18T03:52:22.932Z,1018.21
2019-03-18T03:53:22.987Z,1018.16
2019-03-18T03:54:23.074Z,1018.14
2019-03-18T03:55:22.840Z,1018.14
2019-03-18T03:56:23.004Z,1018.16
2019-03-18T03:57:22.859Z,1018.14
2019-03-18T03:58:23.088Z,1018.17
2019-03-18T03:59:22.820Z,1018.12
2019-03-18T04:00:23.086Z,1018.16
2019-03-18T04:01:23.009Z,1018.19
2019-03-18T04:02:23.046Z,1018.15
2019-03-18T04:03:39.162Z,1018.15
2019-03-18T04:04:23.112Z,1018.15
2019-03-18T04:05:22.890Z,1018.17
2019-03-18T04:06:22.945Z,1018.14
2019-03-18T04:07:22.865Z,1018.14
2019-03-18T04:08:23.040Z,1018.11
2019-03-18T04:09:23.077Z,1018.14
2019-03-18T04:10:22.934Z,1018.14
2019-03-18T04:11:22.985Z,1018.17
2019-03-18T04:12:22.921Z,1018.14
2019-03-18T04:13:22.965Z,1018.14
2019-03-18T04:14:22.998Z,1018.19
2019-03-18T04:15:23.094Z,1018.17
2019-03-18T04:16:23.024Z,1018.19
2019-03-18T04:17:22.825Z,1018.2
2019-03-18T04:18:23.055Z,1018.23
2019-03-18T04:19:23.167Z,1018.28
2019-03-18T04:20:23.053Z,1018.28
2019-03-18T04:21:22.864Z,1018.25
2019-03-18T04:22:22.985Z,1018.32
2019-03-18T04:23:23.106Z,1018.32
2019-03-18T04:24:23.212Z,1018.29
2019-03-18T04:25:22.813Z,1018.33
2019-03-18T04:26:24.669Z,1018.32
2019-03-18T04:27:25.245Z,1018.35
2019-03-18T04:28:22.835Z,1018.41
2019-03-18T04:29:22.878Z,1018.39
2019-03-18T04:30:22.906Z,1018.36
2019-03-18T04:31:22.928Z,1018.33
2019-03-18T04:32:22.902Z,1018.34
2019-03-18T04:33:22.933Z,1018.32
2019-03-18T04:34:23.044Z,1018.32
2019-03-18T04:35:22.945Z,1018.32
2019-03-18T04:36:22.845Z,1018.31
2019-03-18T04:37:23.144Z,1018.34
2019-03-18T04:38:22.976Z,1018.32
2019-03-18T04:39:22.858Z,1018.31
2019-03-18T04:40:22.784Z,1018.38
2019-03-18T04:41:23.206Z,1018.38
2019-03-18T04:42:23.038Z,1018.4
2019-03-18T04:43:23.026Z,1018.45
2019-03-18T04:44:23.033Z,1018.44
2019-03-18T04:45:22.840Z,1018.48
2019-03-18T04:46:22.842Z,1018.51
2019-03-18T04:47:22.723Z,1018.58
2019-03-18T04:48:23.093Z,1018.6
2019-03-18T04:49:24.165Z,1018.65
2019-03-18T04:50:22.944Z,1018.62
2019-03-18T04:51:22.769Z,1018.64
2019-03-18T04:52:22.993Z,1018.61
2019-03-18T04:53:22.934Z,1018.61
2019-03-18T04:54:23.045Z,1018.6
2019-03-18T04:55:22.825Z,1018.59
2019-03-18T04:56:22.955Z,1018.63
2019-03-18T04:57:23.083Z,1018.6
2019-03-18T04:58:22.980Z,1018.57
2019-03-18T04:59:22.980Z,1018.56
2019-03-18T05:00:23.009Z,1018.61
2019-03-18T05:01:22.899Z,1018.61
2019-03-18T05:02:23.024Z,1018.61
2019-03-18T05:03:23.095Z,1018.58
2019-03-18T05:04:23.120Z,1018.63
2019-03-18T05:05:22.778Z,1018.64
2019-03-18T05:06:22.674Z,1018.59
2019-03-18T05:07:22.807Z,1018.63
2019-03-18T05:08:23.142Z,1018.65
2019-03-18T05:09:22.803Z,1018.62
2019-03-18T05:10:23.038Z,1018.65
2019-03-18T05:11:23.602Z,1018.65
2019-03-18T05:12:22.868Z,1018.59
2019-03-18T05:13:22.929Z,1018.58
2019-03-18T05:14:23.019Z,1018.64
2019-03-18T05:15:22.918Z,1018.63
2019-03-18T05:16:22.774Z,1018.65
2019-03-18T05:17:27.316Z,1018.66
2019-03-18T05:18:23.064Z,1018.63
2019-03-18T05:19:22.982Z,1018.64
2019-03-18T05:20:22.814Z,1018.61
2019-03-18T05:21:22.971Z,1018.57
2019-03-18T05:22:23.045Z,1018.65
2019-03-18T05:23:23.048Z,1018.68
2019-03-18T05:24:23.027Z,1018.68
2019-03-18T05:25:23.008Z,1018.7
2019-03-18T05:26:22.844Z,1018.7
2019-03-18T05:27:22.846Z,1018.71
2019-03-18T05:28:22.950Z,1018.73
2019-03-18T05:29:22.845Z,1018.76
2019-03-18T05:30:22.757Z,1018.72
2019-03-18T05:31:22.982Z,1018.73
2019-03-18T05:32:22.783Z,1018.75
2019-03-18T05:33:22.974Z,1018.75
2019-03-18T05:34:22.903Z,1018.75
2019-03-18T05:35:22.974Z,1018.8
2019-03-18T05:36:22.847Z,1018.79
2019-03-18T05:37:23.237Z,1018.8
2019-03-18T05:38:22.936Z,1018.81
2019-03-18T05:39:23.073Z,1018.82
2019-03-18T05:40:23.092Z,1018.79
2019-03-18T05:41:23.001Z,1018.82
2019-03-18T05:42:23.013Z,1018.83
2019-03-18T05:43:23.097Z,1018.83
2019-03-18T05:44:23.025Z,1018.91
2019-03-18T05:45:23.015Z,1018.9
2019-03-18T05:46:23.033Z,1018.95
2019-03-18T05:47:23.169Z,1018.99
2019-03-18T05:48:22.886Z,1018.94
2019-03-18T05:49:22.805Z,1018.95
2019-03-18T05:50:22.823Z,1018.98
2019-03-18T05:51:22.852Z,1018.98
2019-03-18T05:52:22.921Z,1019.03
2019-03-18T05:53:22.830Z,1019.03
2019-03-18T05:54:22.858Z,1019.06
2019-03-18T05:55:22.929Z,1019.06
2019-03-18T05:56:23.118Z,1019.04
2019-03-18T05:57:26.375Z,1019.06
2019-03-18T05:58:24.033Z,1019.04
2019-03-18T05:59:22.943Z,1019.07
2019-03-18T06:00:22.913Z,1019.08
2019-03-18T06:01:22.877Z,1019.13
2019-03-18T06:02:23.175Z,1019.16
2019-03-18T06:03:23.087Z,1019.15
2019-03-18T06:04:23.077Z,1019.15
2019-03-18T06:05:22.768Z,1019.18
2019-03-18T06:06:23.079Z,1019.19
2019-03-18T06:07:23.044Z,1019.23
2019-03-18T06:08:22.858Z,1019.24
2019-03-18T06:09:26.765Z,1019.21
2019-03-18T06:10:22.848Z,1019.24
2019-03-18T06:11:22.846Z,1019.25
2019-03-18T06:12:22.770Z,1019.2
2019-03-18T06:13:23.030Z,1019.19
2019-03-18T06:14:22.894Z,1019.18
2019-03-18T06:15:22.921Z,1019.23
2019-03-18T06:16:23.146Z,1019.29
2019-03-18T06:17:23.024Z,1019.25
2019-03-18T06:18:23.268Z,1019.26
2019-03-18T06:19:23.072Z,1019.32
2019-03-18T06:20:22.966Z,1019.33
2019-03-18T06:21:23.570Z,1019.41
2019-03-18T06:22:23.002Z,1019.39
2019-03-18T06:23:22.767Z,1019.43
2019-03-18T06:24:23.026Z,1019.44
2019-03-18T06:25:23.117Z,1019.39
2019-03-18T06:26:22.863Z,1019.37
2019-03-18T06:27:22.860Z,1019.39
2019-03-18T06:28:23.022Z,1019.35
2019-03-18T06:29:22.776Z,1019.42
2019-03-18T06:30:22.839Z,1019.38
2019-03-18T06:31:23.037Z,1019.45
2019-03-18T06:32:22.820Z,1019.49
2019-03-18T06:33:22.843Z,1019.46
2019-03-18T06:34:22.857Z,1019.52
2019-03-18T06:35:22.854Z,1019.48
2019-03-18T06:36:22.893Z,1019.53
2019-03-18T06:37:22.874Z,1019.59
2019-03-18T06:38:22.891Z,1019.58
2019-03-18T06:39:22.909Z,1019.65
2019-03-18T06:40:23.161Z,1019.63
2019-03-18T06:41:22.890Z,1019.67
2019-03-18T06:42:22.807Z,1019.69
2019-03-18T06:43:23.028Z,1019.69
2019-03-18T06:44:22.997Z,1019.65
2019-03-18T06:45:22.981Z,1019.69
2019-03-18T06:46:22.728Z,1019.66
2019-03-18T06:47:23.069Z,1019.69
2019-03-18T06:48:23.067Z,1019.7
2019-03-18T06:49:22.801Z,1019.77
2019-03-18T06:50:26.781Z,1019.76
2019-03-18T06:51:22.851Z,1019.77
2019-03-18T06:52:23.039Z,1019.77
2019-03-18T06:53:22.798Z,1019.83
2019-03-18T06:54:22.968Z,1019.83
2019-03-18T06:55:22.824Z,1019.83
2019-03-18T06:56:22.979Z,1019.85
2019-03-18T06:57:23.133Z,1019.89
2019-03-18T06:58:22.907Z,1019.89
2019-03-18T06:59:22.918Z,1019.92
2019-03-18T07:00:22.631Z,1019.97
2019-03-18T07:01:22.993Z,1019.99
2019-03-18T07:02:22.925Z,1019.99
2019-03-18T07:03:22.959Z,1020.01
2019-03-18T07:04:23.089Z,1020.06
2019-03-18T07:05:22.976Z,1020.09
2019-03-18T07:06:23.028Z,1020.1
2019-03-18T07:07:23.090Z,1020.1
2019-03-18T07:08:22.997Z,1020.16
2019-03-18T07:09:23.025Z,1020.16
2019-03-18T07:10:22.848Z,1020.16
2019-03-18T07:11:22.776Z,1020.18
2019-03-18T07:12:22.787Z,1020.14
2019-03-18T07:13:22.776Z,1020.15
2019-03-18T07:14:22.787Z,1020.17
2019-03-18T07:15:23.014Z,1020.25
2019-03-18T07:16:22.856Z,1020.19
2019-03-18T07:17:22.860Z,1020.24
2019-03-18T07:18:22.888Z,1020.24
2019-03-18T07:19:22.856Z,1020.25
2019-03-18T07:20:22.895Z,1020.24
2019-03-18T07:21:22.904Z,1020.24
2019-03-18T07:22:22.938Z,1020.27
2019-03-18T07:23:22.895Z,1020.29
2019-03-18T07:24:23.438Z,1020.32
2019-03-18T07:25:23.109Z,1020.35
2019-03-18T07:26:23.023Z,1020.34
2019-03-18T07:27:22.977Z,1020.36
2019-03-18T07:28:23.020Z,1020.34
2019-03-18T07:29:22.705Z,1020.35
2019-03-18T07:30:22.928Z,1020.4
2019-03-18T07:31:22.853Z,1020.44
2019-03-18T07:32:22.809Z,1020.44
2019-03-18T07:33:22.809Z,1020.46
2019-03-18T07:34:22.676Z,1020.51
2019-03-18T07:35:22.945Z,1020.54
2019-03-18T07:36:22.859Z,1020.57
2019-03-18T07:37:22.925Z,1020.59
2019-03-18T07:38:22.959Z,1020.62
2019-03-18T07:39:22.886Z,1020.62
2019-03-18T07:40:22.866Z,1020.65
2019-03-18T07:41:22.875Z,1020.62
2019-03-18T07:42:22.951Z,1020.61
2019-03-18T07:43:22.923Z,1020.56
2019-03-18T07:44:22.978Z,1020.57
2019-03-18T07:45:23.070Z,1020.61
2019-03-18T07:46:22.963Z,1020.59
2019-03-18T07:47:23.678Z,1020.63
2019-03-18T07:48:31.742Z,1020.64
2019-03-18T07:49:23.017Z,1020.66
2019-03-18T07:50:22.748Z,1020.64
2019-03-18T07:51:22.714Z,1020.64
2019-03-18T07:52:22.922Z,1020.63
2019-03-18T07:53:22.804Z,1020.62
2019-03-18T07:54:33.409Z,1020.65
2019-03-18T07:55:22.768Z,1020.62
2019-03-18T07:56:22.802Z,1020.63
2019-03-18T07:57:22.802Z,1020.65
2019-03-18T07:58:22.821Z,1020.66
2019-03-18T07:59:22.946Z,1020.58
2019-03-18T08:00:22.967Z,1020.63
2019-03-18T08:01:22.940Z,1020.63
2019-03-18T08:02:22.968Z,1020.62
2019-03-18T08:03:22.917Z,1020.66
2019-03-18T08:04:22.990Z,1020.68
2019-03-18T08:05:22.993Z,1020.68
2019-03-18T08:06:23.013Z,1020.67
2019-03-18T08:07:23.065Z,1020.69
2019-03-18T08:08:23.051Z,1020.75
2019-03-18T08:09:23.062Z,1020.69
2019-03-18T08:10:23.445Z,1020.73
2019-03-18T08:11:22.856Z,1020.77
2019-03-18T08:12:22.863Z,1020.76
2019-03-18T08:13:22.788Z,1020.79
2019-03-18T08:14:22.767Z,1020.78
2019-03-18T08:15:22.820Z,1020.84
2019-03-18T08:16:22.837Z,1020.75
2019-03-18T08:17:22.832Z,1020.84
2019-03-18T08:18:22.825Z,1020.82
2019-03-18T08:19:22.922Z,1020.85
2019-03-18T08:20:23.057Z,1020.85
2019-03-18T08:21:22.962Z,1020.9
2019-03-18T08:22:22.864Z,1020.85
2019-03-18T08:23:23.034Z,1020.85
2019-03-18T08:24:22.943Z,1020.92
2019-03-18T08:25:23.389Z,1020.91
2019-03-18T08:26:23.013Z,1020.88
2019-03-18T08:27:23.021Z,1020.86
2019-03-18T08:28:22.986Z,1020.85
2019-03-18T08:29:23.069Z,1020.85
2019-03-18T08:30:22.925Z,1020.86
2019-03-18T08:31:22.705Z,1020.84
2019-03-18T08:32:22.939Z,1020.84
2019-03-18T08:33:22.940Z,1020.86
2019-03-18T08:34:22.789Z,1020.87
2019-03-18T08:35:22.778Z,1020.84
2019-03-18T08:36:22.767Z,1020.84
2019-03-18T08:37:22.816Z,1020.86
2019-03-18T08:38:22.960Z,1020.83
2019-03-18T08:39:22.829Z,1020.83
2019-03-18T08:40:22.810Z,1020.83
2019-03-18T08:41:22.831Z,1020.82
2019-03-18T08:42:22.874Z,1020.79
2019-03-18T08:43:22.884Z,1020.81
2019-03-18T08:44:23.018Z,1020.81
2019-03-18T08:45:23.081Z,1020.82
2019-03-18T08:46:22.909Z,1020.85
2019-03-18T08:47:23.120Z,1020.82
2019-03-18T08:48:23.058Z,1020.9
2019-03-18T08:49:22.975Z,1020.85
2019-03-18T08:50:22.986Z,1020.81
2019-03-18T08:51:22.789Z,1020.85
2019-03-18T08:52:22.831Z,1020.9
2019-03-18T08:53:22.795Z,1020.88
2019-03-18T08:54:22.878Z,1020.89
2019-03-18T08:55:22.820Z,1020.91
2019-03-18T08:56:22.784Z,1020.89
2019-03-18T08:57:22.961Z,1020.96
2019-03-18T08:58:22.803Z,1020.95
2019-03-18T08:59:22.809Z,1021.01
2019-03-18T09:00:23.047Z,1021.04
2019-03-18T09:01:22.852Z,1021.07
2019-03-18T09:02:22.867Z,1021.06
2019-03-18T09:03:22.946Z,1021.08
2019-03-18T09:04:22.897Z,1021.07
2019-03-18T09:05:23.029Z,1021.02
2019-03-18T09:06:23.047Z,1021.04
2019-03-18T09:07:22.990Z,1021.04
2019-03-18T09:08:23.142Z,1021.08
2019-03-18T09:09:23.106Z,1021.05
2019-03-18T09:10:22.705Z,1021.04
2019-03-18T09:11:22.703Z,1021.05
2019-03-18T09:12:22.733Z,1021.09
2019-03-18T09:13:22.798Z,1021.13
2019-03-18T09:14:22.774Z,1021.13
2019-03-18T09:15:22.786Z,1021.11
2019-03-18T09:16:22.892Z,1021.18
2019-03-18T09:17:22.780Z,1021.15
2019-03-18T09:18:22.854Z,1021.13
2019-03-18T09:19:22.743Z,1021.11
2019-03-18T09:20:22.857Z,1021.12
2019-03-18T09:21:22.857Z,1021.12
2019-03-18T09:22:23.229Z,1021.12
2019-03-18T09:23:22.986Z,1021.11
2019-03-18T09:24:22.892Z,1021.11
2019-03-18T09:25:22.953Z,1021.14
2019-03-18T09:26:22.937Z,1021.19
2019-03-18T09:27:22.969Z,1021.13
2019-03-18T09:28:23.077Z,1021.17
2019-03-18T09:29:22.684Z,1021.2
2019-03-18T09:30:22.825Z,1021.18
2019-03-18T09:31:23.494Z,1021.19
2019-03-18T09:32:22.810Z,1021.18
2019-03-18T09:33:22.751Z,1021.18
2019-03-18T09:34:22.854Z,1021.17
2019-03-18T09:35:22.766Z,1021.17
2019-03-18T09:36:22.824Z,1021.21
2019-03-18T09:37:22.940Z,1021.19
2019-03-18T09:38:22.846Z,1021.26
2019-03-18T09:39:22.796Z,1021.21
2019-03-18T09:40:22.942Z,1021.26
2019-03-18T09:41:22.894Z,1021.22
2019-03-18T09:42:22.997Z,1021.24
2019-03-18T09:43:22.727Z,1021.18
2019-03-18T09:44:22.901Z,1021.25
2019-03-18T09:45:22.952Z,1021.26
2019-03-18T09:46:23.031Z,1021.24
2019-03-18T09:47:22.943Z,1021.2
2019-03-18T09:48:22.982Z,1021.21
2019-03-18T09:49:22.708Z,1021.22
2019-03-18T09:50:22.720Z,1021.22
2019-03-18T09:51:22.716Z,1021.24
2019-03-18T09:52:23.108Z,1021.23
2019-03-18T09:53:22.722Z,1021.22
2019-03-18T09:54:22.795Z,1021.22
2019-03-18T09:55:22.884Z,1021.21
2019-03-18T09:56:22.885Z,1021.24
2019-03-18T09:57:26.774Z,1021.35
2019-03-18T09:58:22.805Z,1021.26
2019-03-18T09:59:22.892Z,1021.32
2019-03-18T10:00:22.837Z,1021.36
2019-03-18T10:01:22.829Z,1021.33
2019-03-18T10:02:22.835Z,1021.32
2019-03-18T10:03:22.876Z,1021.37
2019-03-18T10:04:22.850Z,1021.45
2019-03-18T10:05:22.885Z,1021.53
2019-03-18T10:06:22.902Z,1021.45
2019-03-18T10:07:22.978Z,1021.48
2019-03-18T10:08:25.481Z,1021.47
2019-03-18T10:09:22.737Z,1021.52
2019-03-18T10:10:22.821Z,1021.49
2019-03-18T10:11:22.730Z,1021.54
2019-03-18T10:12:22.884Z,1021.52
2019-03-18T10:13:22.847Z,1021.58
2019-03-18T10:14:23.129Z,1021.57
2019-03-18T10:15:22.956Z,1021.57
2019-03-18T10:16:22.819Z,1021.57
2019-03-18T10:17:22.864Z,1021.6
2019-03-18T10:18:23.003Z,1021.65
2019-03-18T10:19:34.074Z,1021.6
2019-03-18T10:20:22.947Z,1021.66
2019-03-18T10:21:23.288Z,1021.63
2019-03-18T10:22:22.904Z,1021.72
2019-03-18T10:23:22.987Z,1021.66
2019-03-18T10:24:23.042Z,1021.68
2019-03-18T10:25:22.956Z,1021.77
2019-03-18T10:26:22.959Z,1021.71
2019-03-18T10:27:22.908Z,1021.7
2019-03-18T10:28:23.029Z,1021.74
2019-03-18T10:29:22.667Z,1021.69
2019-03-18T10:30:22.715Z,1021.72
2019-03-18T10:31:22.732Z,1021.72
2019-03-18T10:32:22.861Z,1021.72
2019-03-18T10:33:22.912Z,1021.68
2019-03-18T10:34:22.698Z,1021.71
2019-03-18T10:35:22.686Z,1021.7
2019-03-18T10:36:23.202Z,1021.7
2019-03-18T10:37:22.814Z,1021.74
2019-03-18T10:38:22.597Z,1021.7
2019-03-18T10:39:22.857Z,1021.7
2019-03-18T10:40:22.782Z,1021.71
2019-03-18T10:41:22.753Z,1021.72
2019-03-18T10:42:22.826Z,1021.72
2019-03-18T10:43:22.768Z,1021.77
2019-03-18T10:44:22.877Z,1021.73
2019-03-18T10:45:26.399Z,1021.75
2019-03-18T10:46:22.863Z,1021.72
2019-03-18T10:47:22.727Z,1021.73
2019-03-18T10:48:22.674Z,1021.71
2019-03-18T10:49:22.678Z,1021.69
2019-03-18T10:50:22.747Z,1021.74
2019-03-18T10:51:22.665Z,1021.69
2019-03-18T10:52:22.823Z,1021.71
2019-03-18T10:53:22.707Z,1021.69
2019-03-18T10:54:31.582Z,1021.66
2019-03-18T10:55:22.847Z,1021.68
2019-03-18T10:56:22.802Z,1021.62
2019-03-18T10:57:22.844Z,1021.65
2019-03-18T10:58:23.160Z,1021.68
2019-03-18T10:59:22.813Z,1021.67
2019-03-18T11:00:22.809Z,1021.71
2019-03-18T11:01:22.880Z,1021.71
2019-03-18T11:02:22.802Z,1021.72
2019-03-18T11:03:22.972Z,1021.73
2019-03-18T11:04:22.889Z,1021.73
2019-03-18T11:05:22.834Z,1021.71
2019-03-18T11:06:22.602Z,1021.79
2019-03-18T11:07:22.618Z,1021.79
2019-03-18T11:08:22.738Z,1021.76
2019-03-18T11:09:22.750Z,1021.82
2019-03-18T11:10:22.870Z,1021.86
2019-03-18T11:11:22.627Z,1021.88
2019-03-18T11:12:22.691Z,1021.85
2019-03-18T11:13:22.648Z,1021.87
2019-03-18T11:14:22.718Z,1021.8
2019-03-18T11:15:22.950Z,1021.88
2019-03-18T11:16:22.798Z,1021.89
2019-03-18T11:17:22.675Z,1021.89
2019-03-18T11:18:22.786Z,1021.85
2019-03-18T11:19:22.557Z,1021.89
2019-03-18T11:20:22.874Z,1021.87
2019-03-18T11:21:22.821Z,1021.89
2019-03-18T11:22:22.881Z,1021.94
2019-03-18T11:23:22.835Z,1021.89
2019-03-18T11:24:22.722Z,1021.88
2019-03-18T11:25:22.736Z,1021.93
2019-03-18T11:26:22.673Z,1021.9
2019-03-18T11:27:22.656Z,1021.91
2019-03-18T11:28:22.663Z,1021.85
2019-03-18T11:29:22.673Z,1021.91
2019-03-18T11:30:22.798Z,1021.95
2019-03-18T11:31:22.771Z,1021.92
2019-03-18T11:32:22.642Z,1021.86
2019-03-18T11:33:22.772Z,1021.89
2019-03-18T11:34:22.734Z,1021.9
2019-03-18T11:35:22.738Z,1021.86
2019-03-18T11:36:22.781Z,1021.85
2019-03-18T11:37:22.801Z,1021.93
2019-03-18T11:38:22.791Z,1021.88
2019-03-18T11:39:22.831Z,1021.92
2019-03-18T11:40:22.809Z,1021.88
2019-03-18T11:41:22.857Z,1021.84
2019-03-18T11:42:22.553Z,1021.89
2019-03-18T11:43:22.726Z,1021.86
2019-03-18T11:44:22.596Z,1021.88
2019-03-18T11:45:22.839Z,1021.86
2019-03-18T11:46:22.606Z,1021.83
2019-03-18T11:47:22.709Z,1021.86
2019-03-18T11:48:22.693Z,1021.8
2019-03-18T11:49:22.784Z,1021.76
2019-03-18T11:50:22.773Z,1021.77
2019-03-18T11:51:22.708Z,1021.8
2019-03-18T11:52:22.775Z,1021.77
2019-03-18T11:53:22.824Z,1021.78
2019-03-18T11:54:23.162Z,1021.85
2019-03-18T11:55:22.747Z,1021.84
2019-03-18T11:56:22.871Z,1021.76
2019-03-18T11:57:22.926Z,1021.74
2019-03-18T11:58:22.838Z,1021.77
2019-03-18T11:59:22.891Z,1021.73
2019-03-18T12:00:22.691Z,1021.75
2019-03-18T12:01:22.671Z,1021.72
2019-03-18T12:02:28.288Z,1021.69
2019-03-18T12:03:22.666Z,1021.66
2019-03-18T12:04:23.309Z,1021.66
2019-03-18T12:05:23.030Z,1021.61
2019-03-18T12:06:23.098Z,1021.61
2019-03-18T12:07:22.648Z,1021.63